Time;durP1;ratioP1;P1;durP2;ratioP2;P2;SDS_P1;SDS_P2;PMS_P1;PMS_P2;Temp;Humidity;BMP_temperature;BMP_pressure;BME280_temperature;BME280_humidity;BME280_pressure;Samples;Min_cycle;Max_cycle;Signal;HPM_P1;HPM_P2
2022/08/08 00:00:10;;;;;;;4.53;0.90;;;;;;;14.32;76.88;101651.72;5039329;28;20042;-86
2022/08/08 00:03:04;;;;;;;4.72;1.23;;;;;;;14.25;77.21;101661.25;5048221;28;20044;-81
2022/08/08 00:05:44;;;;;;;5.35;1.08;;;;;;;14.14;77.37;101660.38;5048917;28;20070;-81
2022/08/08 00:08:23;;;;;;;5.20;0.82;;;;;;;14.13;77.28;101657.84;5083897;28;20036;-80
2022/08/08 00:11:12;;;;;;;5.32;0.93;;;;;;;14.12;77.08;101653.53;5059851;28;20517;-80
2022/08/08 00:13:52;;;;;;;5.07;0.82;;;;;;;14.11;77.15;101652.69;5063432;28;20059;-86
2022/08/08 00:16:42;;;;;;;8.65;1.35;;;;;;;14.04;77.15;101656.03;5045060;28;20485;-80
2022/08/08 00:19:34;;;;;;;3.88;1.00;;;;;;;14.00;77.19;101647.47;5045963;28;20037;-81
2022/08/08 00:22:11;;;;;;;8.23;0.93;;;;;;;14.04;77.30;101658.69;5046437;28;20033;-86
2022/08/08 00:24:45;;;;;;;5.13;0.80;;;;;;;14.04;77.18;101646.25;5074244;28;20084;-86
2022/08/08 00:27:12;;;;;;;2.88;0.82;;;;;;;14.05;77.52;101657.72;5052110;28;20094;-81
2022/08/08 00:29:56;;;;;;;3.55;1.08;;;;;;;14.05;77.03;101649.75;5045008;28;20060;-80
2022/08/08 00:32:27;;;;;;;6.10;0.80;;;;;;;14.07;77.19;101659.25;5038155;28;20386;-81
2022/08/08 00:35:12;;;;;;;4.63;0.90;;;;;;;14.06;77.02;101651.44;5028905;28;20063;-81
2022/08/08 00:38:09;;;;;;;4.25;0.82;;;;;;;13.99;77.22;101656.44;5036233;28;20482;-81
2022/08/08 00:41:05;;;;;;;4.35;0.93;;;;;;;13.92;77.66;101657.97;5045187;28;20025;-81
2022/08/08 00:44:08;;;;;;;6.30;1.10;;;;;;;13.88;78.07;101655.59;5051243;28;20068;-81
2022/08/08 00:47:09;;;;;;;7.00;1.20;;;;;;;13.82;78.22;101649.97;5027856;28;20033;-80
2022/08/08 00:50:02;;;;;;;3.47;1.00;;;;;;;13.73;78.57;101643.66;5027300;28;20392;-81
2022/08/08 00:52:41;;;;;;;4.35;0.88;;;;;;;13.57;78.75;101645.00;5037612;28;20034;-85
2022/08/08 00:55:22;;;;;;;2.88;1.10;;;;;;;13.45;79.47;101643.38;5048514;28;20094;-85
2022/08/08 00:58:27;;;;;;;3.97;1.25;;;;;;;13.28;79.79;101643.88;5061443;28;20041;-80
2022/08/08 01:00:59;;;;;;;3.53;0.88;;;;;;;13.23;80.23;101650.56;5008450;28;20063;-85
2022/08/08 01:03:57;;;;;;;1.20;0.73;;;;;;;13.18;80.06;101650.13;5043383;28;20429;-85
2022/08/08 01:06:57;;;;;;;1.88;0.60;;;;;;;13.08;79.79;101644.75;5023217;28;20094;-86
2022/08/08 01:09:49;;;;;;;1.25;0.60;;;;;;;12.88;79.99;101642.81;5041412;28;20095;-85
2022/08/08 01:12:35;;;;;;;1.23;0.68;;;;;;;12.82;80.30;101642.50;5082584;28;20080;-86
2022/08/08 01:15:32;;;;;;;0.40;0.40;;;;;;;12.77;80.44;101640.25;5051414;28;20064;-86
2022/08/08 01:18:20;;;;;;;0.88;0.40;;;;;;;12.72;80.40;101645.09;5043299;28;20043;-81
2022/08/08 01:21:21;;;;;;;3.65;0.43;;;;;;;12.74;80.02;101637.84;5025820;28;20478;-80
2022/08/08 01:24:29;;;;;;;1.48;0.60;;;;;;;12.76;80.00;101636.75;5030164;28;20039;-85
2022/08/08 01:27:14;;;;;;;0.68;0.40;;;;;;;12.80;79.62;101634.69;5083079;28;20021;-81
2022/08/08 01:30:01;;;;;;;1.42;0.50;;;;;;;12.85;79.78;101640.41;5044248;28;20035;-81
2022/08/08 01:32:46;;;;;;;1.17;0.52;;;;;;;12.88;79.48;101637.50;5035730;28;20041;-81
2022/08/08 01:35:41;;;;;;;5.13;0.70;;;;;;;12.91;79.43;101641.72;5046440;28;20039;-80
2022/08/08 01:38:50;;;;;;;1.73;0.77;;;;;;;12.89;79.19;101647.16;5024830;28;20071;-80
2022/08/08 01:41:27;;;;;;;4.93;1.13;;;;;;;12.91;79.07;101641.72;5083091;28;20107;-80
2022/08/08 01:44:05;;;;;;;4.97;0.80;;;;;;;12.92;78.83;101647.84;5082281;28;20057;-80
2022/08/08 01:46:46;;;;;;;3.95;1.27;;;;;;;12.81;79.10;101644.31;5048919;28;20033;-80
2022/08/08 01:49:51;;;;;;;4.55;0.95;;;;;;;12.71;79.52;101648.72;5067032;28;20049;-80
2022/08/08 01:52:26;;;;;;;2.85;0.82;;;;;;;12.73;80.02;101642.31;5044544;28;20116;-81
2022/08/08 01:55:10;;;;;;;6.47;0.93;;;;;;;12.75;79.21;101643.03;5032485;28;20084;-81
2022/08/08 01:57:48;;;;;;;4.20;0.68;;;;;;;12.75;79.85;101645.69;5048869;28;20029;-80
2022/08/08 02:00:26;;;;;;;2.33;0.68;;;;;;;12.73;79.53;101639.66;5080281;28;20119;-81
2022/08/08 02:03:15;;;;;;;3.28;0.75;;;;;;;12.65;79.48;101642.97;5045520;28;20519;-81
2022/08/08 02:06:09;;;;;;;1.02;0.60;;;;;;;12.48;79.39;101644.38;5028862;28;20083;-80
2022/08/08 02:08:55;;;;;;;2.55;1.02;;;;;;;12.36;79.79;101640.91;5057507;28;20029;-79
2022/08/08 02:11:30;;;;;;;1.27;0.50;;;;;;;12.21;79.62;101650.13;5030993;28;20033;-81
2022/08/08 02:14:18;;;;;;;3.17;0.70;;;;;;;12.14;79.54;101645.31;5064945;28;20040;-81
2022/08/08 02:17:19;;;;;;;3.45;0.55;;;;;;;12.04;79.21;101639.88;5040027;28;20548;-81
2022/08/08 02:20:04;;;;;;;2.05;0.68;;;;;;;12.06;79.15;101638.91;5082369;28;20037;-80
2022/08/08 02:22:46;;;;;;;2.70;0.75;;;;;;;12.07;78.60;101640.63;5081026;28;20033;-86
2022/08/08 02:25:24;;;;;;;1.88;0.90;;;;;;;12.06;78.25;101645.06;5056619;28;20029;-85
2022/08/08 02:28:00;;;;;;;1.88;0.98;;;;;;;11.94;78.31;101644.25;5053241;28;20033;-80
2022/08/08 02:31:05;;;;;;;4.78;1.38;;;;;;;11.84;78.21;101644.16;5049887;28;20482;-80
2022/08/08 02:33:49;;;;;;;2.17;1.30;;;;;;;11.86;78.48;101650.19;5017406;28;20044;-80
2022/08/08 02:36:42;;;;;;;1.27;0.98;;;;;;;11.89;78.15;101652.59;5073122;28;20035;-80
2022/08/08 02:39:28;;;;;;;1.83;0.80;;;;;;;11.85;77.84;101645.81;5049683;28;20064;-80
2022/08/08 02:42:32;;;;;;;3.85;0.60;;;;;;;11.84;77.88;101656.53;5064766;28;20040;-85
2022/08/08 02:45:20;;;;;;;4.70;1.08;;;;;;;11.85;77.25;101648.47;5032432;28;20390;-85
2022/08/08 02:48:37;;;;;;;5.93;1.20;;;;;;;11.83;77.26;101649.56;5045514;28;20032;-80
2022/08/08 02:51:25;;;;;;;2.55;0.98;;;;;;;11.72;77.72;101645.13;5062339;28;20032;-80
2022/08/08 02:54:11;;;;;;;3.25;0.85;;;;;;;11.72;77.41;101645.97;5050149;28;20043;-80
2022/08/08 02:56:59;;;;;;;2.35;0.75;;;;;;;11.74;77.13;101651.97;5041184;28;20079;-80
2022/08/08 02:59:49;;;;;;;2.78;0.80;;;;;;;11.70;77.09;101653.22;5036511;28;20040;-80
2022/08/08 03:02:37;;;;;;;1.60;0.60;;;;;;;11.65;77.28;101653.56;5041169;28;20035;-80
2022/08/08 03:05:32;;;;;;;1.63;0.50;;;;;;;11.60;76.95;101646.94;5004470;28;20056;-80
2022/08/08 03:08:27;;;;;;;0.45;0.20;;;;;;;11.50;77.00;101650.31;5041545;28;20478;-81
2022/08/08 03:11:09;;;;;;;1.65;0.30;;;;;;;11.46;77.28;101645.38;5031147;28;20061;-80
2022/08/08 03:13:34;;;;;;;0.20;0.20;;;;;;;11.40;77.32;101652.00;5063153;28;20079;-80
2022/08/08 03:16:22;;;;;;;24.30;0.80;;;;;;;11.30;77.07;101657.19;5046183;28;20029;-80
2022/08/08 03:18:57;;;;;;;1.60;0.90;;;;;;;11.09;77.32;101657.88;5032985;28;20039;-79
2022/08/08 03:21:24;;;;;;;0.85;0.50;;;;;;;11.00;77.90;101653.28;5034508;28;20030;-80
2022/08/08 03:23:50;;;;;;;1.30;0.70;;;;;;;11.02;77.67;101651.38;5036744;28;20115;-80
2022/08/08 03:26:21;;;;;;;3.20;0.90;;;;;;;11.07;77.69;101656.31;5046167;28;20056;-80
2022/08/08 03:28:57;;;;;;;4.30;1.17;;;;;;;11.02;77.04;101654.03;5035480;28;20029;-80
2022/08/08 03:34:12;;;;;;;2.30;1.20;;;;;;;10.88;77.09;101655.91;5061203;28;20097;-80
2022/08/08 03:36:40;;;;;;;2.63;1.17;;;;;;;10.87;77.00;101669.25;5048404;28;20477;-81
2022/08/08 03:39:06;;;;;;;4.47;1.17;;;;;;;10.82;77.05;101652.88;5049088;28;20041;-80
2022/08/08 03:41:35;;;;;;;4.10;1.27;;;;;;;10.79;77.40;101662.75;5055813;28;20060;-80
2022/08/08 03:44:03;;;;;;;5.93;1.77;;;;;;;10.76;77.19;101662.13;5054498;28;20037;-81
2022/08/08 03:46:49;;;;;;;14.63;2.00;;;;;;;10.66;77.37;101657.53;5058440;28;20029;-80
2022/08/08 03:49:20;;;;;;;;;;;;;;;10.48;77.36;101665.00;5067352;28;21203;-81
2022/08/08 03:51:55;;;;;;;6.43;1.55;;;;;;;10.51;77.84;101666.59;5042722;28;19962;-81
2022/08/08 03:54:25;;;;;;;19.08;2.30;;;;;;;10.48;77.38;101665.00;5040439;28;20044;-80
2022/08/08 03:56:52;;;;;;;33.13;2.55;;;;;;;10.47;77.60;101671.25;5058687;28;20029;-85
2022/08/08 03:59:18;;;;;;;14.90;2.70;;;;;;;10.42;77.34;101668.06;5044908;28;20037;-85
2022/08/08 04:01:44;;;;;;;33.47;3.55;;;;;;;10.45;77.63;101680.25;5081280;28;20044;-80
2022/08/08 04:04:10;;;;;;;9.73;3.17;;;;;;;10.43;77.32;101670.59;5042334;28;20036;-81
2022/08/08 04:06:54;;;;;;;16.13;7.60;;;;;;;10.46;77.19;101687.19;5063104;28;20029;-80
2022/08/08 04:09:20;;;;;;;19.25;8.02;;;;;;;10.37;77.31;101683.41;5037379;28;20034;-81
2022/08/08 04:11:46;;;;;;;12.90;5.47;;;;;;;10.29;77.62;101682.19;5036501;28;20045;-80
2022/08/08 04:14:13;;;;;;;18.65;7.70;;;;;;;10.26;77.43;101687.69;5060518;28;20111;-80
2022/08/08 04:16:40;;;;;;;50.05;21.25;;;;;;;10.25;77.85;101690.44;5030576;28;20465;-80
2022/08/08 04:19:08;;;;;;;29.48;7.72;;;;;;;10.18;77.82;101690.91;5063155;28;20041;-80
2022/08/08 04:21:35;;;;;;;36.65;9.43;;;;;;;10.00;77.75;101692.22;5050212;28;20040;-80
2022/08/08 04:24:01;;;;;;;28.05;5.55;;;;;;;9.94;78.42;101685.56;5048645;28;20029;-81
2022/08/08 04:26:27;;;;;;;21.38;3.20;;;;;;;9.80;78.79;101686.56;5048381;28;20107;-86
2022/08/08 04:28:53;;;;;;;36.33;2.05;;;;;;;9.77;78.81;101694.69;5050536;28;20036;-85
2022/08/08 04:31:19;;;;;;;4.85;0.98;;;;;;;9.80;79.34;101699.75;5050186;28;20037;-81
2022/08/08 04:33:44;;;;;;;4.90;1.30;;;;;;;9.89;79.07;101687.72;5053163;28;20033;-80
2022/08/08 04:36:10;;;;;;;9.13;3.53;;;;;;;9.97;78.59;101698.56;5047836;28;20052;-80
2022/08/08 04:38:36;;;;;;;5.13;2.05;;;;;;;10.03;78.49;101695.47;5021702;28;20478;-80
2022/08/08 04:41:02;;;;;;;5.47;2.65;;;;;;;10.07;78.38;101701.38;5062511;28;20039;-80
2022/08/08 04:43:29;;;;;;;3.00;1.65;;;;;;;10.11;78.68;101694.94;5046430;28;20501;-80
2022/08/08 04:45:55;;;;;;;5.10;1.17;;;;;;;10.15;78.29;101690.28;5032404;28;20051;-80
2022/08/08 04:48:22;;;;;;;7.65;1.05;;;;;;;10.17;78.54;101691.88;5032843;28;20060;-80
2022/08/08 04:50:50;;;;;;;2.10;1.05;;;;;;;10.19;78.30;101691.75;5058286;28;20045;-80
2022/08/08 04:53:20;;;;;;;9.07;0.90;;;;;;;10.15;78.15;101695.56;5058098;28;20040;-80
2022/08/08 04:55:48;;;;;;;7.30;1.10;;;;;;;10.16;78.13;101694.63;5068972;28;20075;-80
2022/08/08 04:58:16;;;;;;;3.47;0.93;;;;;;;10.13;77.72;101694.84;5018246;28;20385;-80
2022/08/08 05:00:42;;;;;;;8.77;0.90;;;;;;;10.00;77.34;101700.97;5052671;28;20026;-80
2022/08/08 05:03:08;;;;;;;0.90;0.73;;;;;;;9.86;77.78;101691.41;5050393;28;20477;-80
2022/08/08 05:05:35;;;;;;;4.72;0.57;;;;;;;9.79;78.06;101700.72;5026273;28;20041;-80
2022/08/08 05:08:01;;;;;;;1.20;0.82;;;;;;;9.75;78.15;101702.72;5047950;28;20045;-80
2022/08/08 05:10:28;;;;;;;0.80;0.73;;;;;;;9.76;78.11;101707.03;5030457;28;20123;-80
2022/08/08 05:12:56;;;;;;;1.17;0.65;;;;;;;9.78;78.18;101706.94;5043893;28;20142;-80
2022/08/08 05:15:22;;;;;;;0.70;0.70;;;;;;;9.80;77.95;101711.16;5031186;28;20359;-81
2022/08/08 05:17:49;;;;;;;0.80;0.55;;;;;;;9.79;77.13;101712.09;5059031;28;20041;-80
2022/08/08 05:20:15;;;;;;;1.50;0.60;;;;;;;9.77;77.20;101714.03;5041807;28;20392;-80
2022/08/08 05:22:41;;;;;;;1.77;0.63;;;;;;;9.80;76.98;101715.59;5038799;28;20056;-80
2022/08/08 05:25:09;;;;;;;0.65;0.50;;;;;;;9.84;76.83;101718.88;5069244;28;20029;-80
2022/08/08 05:27:35;;;;;;;0.60;0.50;;;;;;;9.82;76.60;101720.78;5053761;28;20111;-80
2022/08/08 05:30:02;;;;;;;1.23;0.40;;;;;;;9.81;76.51;101725.19;5039474;28;20028;-80
2022/08/08 05:32:37;;;;;;;1.70;0.73;;;;;;;9.76;76.93;101727.34;5046410;28;20037;-80
2022/08/08 05:35:06;;;;;;;8.70;0.80;;;;;;;9.80;76.94;101727.00;5082780;28;20061;-80
2022/08/08 05:37:40;;;;;;;1.58;0.68;;;;;;;9.87;76.91;101731.88;5021682;28;20393;-80
2022/08/08 05:40:07;;;;;;;0.65;0.60;;;;;;;9.89;76.88;101733.44;5053222;28;20028;-80
2022/08/08 05:42:33;;;;;;;14.32;1.10;;;;;;;9.91;77.02;101736.81;5048580;28;20071;-80
2022/08/08 05:45:01;;;;;;;12.55;1.00;;;;;;;9.91;77.31;101733.31;5045233;28;20115;-80
2022/08/08 05:47:28;;;;;;;5.70;0.80;;;;;;;9.93;77.72;101732.28;5055347;28;20099;-80
2022/08/08 05:49:55;;;;;;;2.33;0.70;;;;;;;10.02;78.05;101730.78;5052773;28;20041;-80
2022/08/08 05:52:23;;;;;;;21.08;0.93;;;;;;;10.08;78.04;101724.19;5048579;28;20028;-85
2022/08/08 05:54:49;;;;;;;9.45;1.02;;;;;;;10.14;78.15;101726.44;5073798;28;20022;-85
2022/08/08 05:57:16;;;;;;;17.35;1.08;;;;;;;10.21;78.38;101723.34;5055720;28;20070;-80
2022/08/08 05:59:51;;;;;;;40.97;1.60;;;;;;;10.27;78.79;101728.19;5056533;28;20029;-80
2022/08/08 06:05:15;;;;;;;19.90;1.20;;;;;;;10.28;79.38;101730.72;5049852;28;20037;-80
2022/08/08 06:07:46;;;;;;;49.30;1.58;;;;;;;10.29;79.57;101723.63;5033754;28;20508;-85
2022/08/08 06:10:13;;;;;;;39.72;1.30;;;;;;;10.21;79.66;101736.56;5039922;28;20090;-85
2022/08/08 06:12:41;;;;;;;18.30;1.08;;;;;;;10.13;80.49;101729.19;5068780;28;20044;-80
2022/08/08 06:15:09;;;;;;;47.08;1.40;;;;;;;10.14;80.73;101731.72;5050518;28;20020;-80
2022/08/08 06:17:39;;;;;;;61.00;2.03;;;;;;;10.22;80.81;101736.44;5045975;28;20043;-85
2022/08/08 06:20:11;;;;;;;22.58;1.52;;;;;;;10.28;80.82;101738.66;5074924;28;20029;-85
2022/08/08 06:22:37;;;;;;;15.77;1.15;;;;;;;10.31;81.16;101729.66;5051747;28;20180;-80
2022/08/08 06:25:10;;;;;;;28.02;1.60;;;;;;;10.33;81.04;101743.59;5065931;28;20037;-80
2022/08/08 06:27:47;;;;;;;13.95;1.33;;;;;;;10.29;81.51;101742.13;5057318;28;20037;-80
2022/08/08 06:30:15;;;;;;;22.90;1.33;;;;;;;10.31;82.05;101745.50;5053108;28;20440;-80
2022/08/08 06:32:48;;;;;;;13.75;1.20;;;;;;;10.39;82.08;101756.38;5063098;28;20051;-80
2022/08/08 06:35:16;;;;;;;7.82;0.95;;;;;;;10.45;82.66;101746.31;5075037;28;20051;-81
2022/08/08 06:37:57;;;;;;;7.10;0.80;;;;;;;10.58;82.54;101757.72;5031483;28;20060;-80
2022/08/08 06:40:31;;;;;;;39.05;1.25;;;;;;;10.67;82.89;101757.03;5047241;28;20146;-80
2022/08/08 06:43:09;;;;;;;13.70;0.65;;;;;;;10.81;82.96;101759.63;5034046;28;20041;-80
2022/08/08 06:45:50;;;;;;;19.30;0.70;;;;;;;10.90;82.78;101758.94;5048701;28;20036;-80
2022/08/08 06:48:17;;;;;;;25.67;0.80;;;;;;;10.98;83.08;101748.63;5033544;28;20378;-80
2022/08/08 06:50:44;;;;;;;0.90;0.40;;;;;;;11.02;83.16;101749.25;5051605;28;20064;-80
2022/08/08 06:53:12;;;;;;;3.58;0.65;;;;;;;11.11;83.66;101750.34;5064975;28;20029;-80
2022/08/08 06:55:39;;;;;;;0.55;0.50;;;;;;;11.21;83.49;101751.34;5056955;28;20032;-80
2022/08/08 06:58:05;;;;;;;2.85;0.70;;;;;;;11.29;83.55;101754.25;5054877;28;20039;-80
2022/08/08 07:00:37;;;;;;;2.65;0.65;;;;;;;11.35;84.05;101757.41;5067365;28;20035;-80
2022/08/08 07:03:11;;;;;;;1.85;0.50;;;;;;;11.36;84.26;101748.50;5046580;28;20036;-80
2022/08/08 07:05:40;;;;;;;0.40;0.40;;;;;;;11.39;84.59;101754.41;5085785;28;20033;-80
2022/08/08 07:08:08;;;;;;;11.05;0.50;;;;;;;11.47;85.04;101755.59;5083317;28;20116;-80
2022/08/08 07:10:44;;;;;;;3.85;0.63;;;;;;;11.61;85.23;101758.03;5044302;28;20037;-80
2022/08/08 07:13:16;;;;;;;2.97;0.73;;;;;;;11.75;85.48;101758.78;5042082;28;20045;-80
2022/08/08 07:15:44;;;;;;;3.92;0.63;;;;;;;11.86;86.21;101756.16;5069440;28;20095;-80
2022/08/08 07:18:20;;;;;;;0.50;0.50;;;;;;;11.97;86.30;101755.31;5048532;28;20420;-80
2022/08/08 07:20:52;;;;;;;0.30;0.30;;;;;;;12.07;86.95;101757.22;5041445;28;20021;-80
2022/08/08 07:23:30;;;;;;;0.80;0.30;;;;;;;12.24;86.83;101758.56;5052044;28;20043;-80
2022/08/08 07:26:01;;;;;;;2.42;0.60;;;;;;;12.44;87.00;101762.25;5050155;28;20027;-80
2022/08/08 07:28:28;;;;;;;1.33;0.50;;;;;;;12.63;86.83;101758.94;5033367;28;20086;-80
2022/08/08 07:30:57;;;;;;;0.63;0.63;;;;;;;12.92;86.92;101760.16;5088481;28;20111;-80
2022/08/08 07:33:24;;;;;;;0.80;0.60;;;;;;;13.33;87.30;101762.16;5056403;28;20064;-80
2022/08/08 07:35:52;;;;;;;1.42;0.45;;;;;;;13.73;86.72;101763.22;5078385;28;20041;-80
2022/08/08 07:38:19;;;;;;;2.10;0.55;;;;;;;14.17;86.20;101765.63;5053666;28;20519;-80
2022/08/08 07:40:57;;;;;;;1.08;0.50;;;;;;;14.52;85.08;101766.97;5043766;28;20392;-81
2022/08/08 07:43:25;;;;;;;6.65;0.65;;;;;;;14.81;84.35;101772.50;5073398;28;20485;-80
2022/08/08 07:45:53;;;;;;;1.25;0.65;;;;;;;15.03;84.01;101757.22;5044495;28;20136;-80
2022/08/08 07:48:19;;;;;;;2.35;0.73;;;;;;;15.30;83.03;101764.47;5054409;28;20108;-80
2022/08/08 07:50:47;;;;;;;1.90;0.63;;;;;;;15.53;82.13;101763.31;5030025;28;20048;-82
2022/08/08 07:53:33;;;;;;;2.22;0.70;;;;;;;15.71;81.09;101766.88;5031184;28;20036;-80
2022/08/08 07:56:01;;;;;;;2.63;0.77;;;;;;;15.89;80.71;101771.44;5051152;28;20116;-81
2022/08/08 07:58:34;;;;;;;5.53;0.73;;;;;;;16.03;80.24;101766.63;5069537;28;20139;-81
2022/08/08 08:01:04;;;;;;;2.50;0.57;;;;;;;16.10;79.88;101767.75;5022260;28;20466;-81
2022/08/08 08:03:46;;;;;;;4.05;0.73;;;;;;;16.16;79.32;101769.81;5027251;28;20398;-81
2022/08/08 08:06:18;;;;;;;3.90;1.20;;;;;;;16.22;79.45;101769.22;5039340;28;20032;-81
2022/08/08 08:08:53;;;;;;;1.90;0.70;;;;;;;16.28;79.25;101770.44;5033421;28;20098;-81
2022/08/08 08:11:25;;;;;;;4.40;0.70;;;;;;;16.34;79.04;101772.50;5079861;28;20030;-81
2022/08/08 08:14:08;;;;;;;3.78;0.90;;;;;;;16.34;78.71;101771.69;5048532;28;20060;-81
2022/08/08 08:16:39;;;;;;;4.75;0.88;;;;;;;16.36;79.23;101775.88;5040261;28;20036;-81
2022/08/08 08:19:08;;;;;;;7.05;1.08;;;;;;;16.37;79.22;101772.19;5036149;28;20405;-80
2022/08/08 08:21:42;;;;;;;6.20;1.02;;;;;;;16.39;79.38;101774.72;5040780;28;20044;-80
2022/08/08 08:24:13;;;;;;;5.18;0.75;;;;;;;16.38;79.22;101775.72;5025956;28;20024;-80
2022/08/08 08:26:39;;;;;;;4.15;0.80;;;;;;;16.36;79.54;101777.69;5053071;28;20122;-80
2022/08/08 08:29:06;;;;;;;3.08;0.70;;;;;;;16.31;79.61;101772.78;5049685;28;20033;-80
2022/08/08 08:31:35;;;;;;;2.88;0.70;;;;;;;16.26;79.79;101764.38;5054720;28;20037;-80
2022/08/08 08:34:01;;;;;;;1.30;0.57;;;;;;;16.29;79.96;101763.28;5040981;28;20029;-80
2022/08/08 08:36:27;;;;;;;3.45;0.93;;;;;;;16.34;80.21;101759.16;5050045;28;20069;-80
2022/08/08 08:38:54;;;;;;;4.88;1.13;;;;;;;16.37;80.37;101763.38;5074821;28;20052;-80
2022/08/08 08:41:32;;;;;;;2.55;0.80;;;;;;;16.34;80.53;101756.50;5081580;28;20116;-80
2022/08/08 08:44:00;;;;;;;2.78;0.70;;;;;;;16.42;80.79;101771.75;5050911;28;20029;-80
2022/08/08 08:46:27;;;;;;;4.18;0.77;;;;;;;16.47;80.82;101766.81;5024421;28;20040;-80
2022/08/08 08:48:55;;;;;;;4.22;0.70;;;;;;;16.51;80.49;101772.69;5047360;28;20113;-80
2022/08/08 08:51:25;;;;;;;4.82;0.80;;;;;;;16.58;80.21;101764.91;5042039;28;20041;-80
2022/08/08 08:53:55;;;;;;;3.55;0.80;;;;;;;16.60;79.65;101762.91;5050743;28;20039;-80
2022/08/08 08:56:25;;;;;;;4.80;0.90;;;;;;;16.66;79.50;101770.31;5063298;28;20044;-80
2022/08/08 08:58:58;;;;;;;6.88;0.90;;;;;;;16.71;79.25;101765.38;5052132;28;20031;-80
2022/08/08 09:01:37;;;;;;;3.08;0.50;;;;;;;16.82;79.12;101760.78;5081147;28;20107;-80
2022/08/08 09:04:09;;;;;;;6.90;1.00;;;;;;;16.91;79.07;101767.03;5034582;28;20041;-80
2022/08/08 09:06:41;;;;;;;3.25;0.98;;;;;;;16.98;78.76;101760.94;5049933;28;20033;-79
2022/08/08 09:09:10;;;;;;;3.70;1.00;;;;;;;17.05;78.41;101757.63;5085860;28;20497;-80
2022/08/08 09:11:37;;;;;;;4.65;0.80;;;;;;;17.15;77.90;101754.91;5050838;28;20033;-80
2022/08/08 09:14:07;;;;;;;5.65;0.90;;;;;;;17.24;77.39;101756.63;5033138;28;20459;-80
2022/08/08 09:16:33;;;;;;;5.88;0.82;;;;;;;17.33;77.21;101760.19;5027965;28;20087;-80
2022/08/08 09:19:01;;;;;;;7.70;1.08;;;;;;;17.37;76.44;101753.56;5065473;28;20060;-80
2022/08/08 09:21:28;;;;;;;4.15;0.50;;;;;;;17.45;75.67;101752.75;5064552;28;20040;-80
2022/08/08 09:23:55;;;;;;;5.78;1.00;;;;;;;17.47;75.19;101748.94;5029322;28;20037;-80
2022/08/08 09:26:46;;;;;;;5.03;0.60;;;;;;;17.59;74.73;101743.31;5060531;28;20065;-80
2022/08/08 09:29:21;;;;;;;7.55;0.82;;;;;;;17.69;74.62;101741.38;5034634;28;20162;-81
2022/08/08 09:31:59;;;;;;;6.22;0.90;;;;;;;17.76;74.35;101746.09;5053921;28;20106;-80
2022/08/08 09:34:32;;;;;;;11.20;1.58;;;;;;;17.82;74.21;101738.22;5067621;28;20032;-81
2022/08/08 09:37:04;;;;;;;3.97;1.42;;;;;;;17.92;74.14;101742.63;5038689;28;20116;-80
2022/08/08 09:39:46;;;;;;;4.55;1.00;;;;;;;17.96;74.02;101743.97;5033171;28;20366;-80
2022/08/08 09:42:22;;;;;;;8.63;1.55;;;;;;;18.02;74.14;101735.31;5035503;28;20036;-80
2022/08/08 09:44:53;;;;;;;7.57;1.27;;;;;;;18.10;73.99;101746.03;5067266;28;20494;-80
2022/08/08 09:47:22;;;;;;;14.30;1.67;;;;;;;18.14;74.12;101735.88;5064581;28;20047;-81
2022/08/08 09:49:48;;;;;;;6.57;1.70;;;;;;;18.22;74.04;101738.56;5054025;28;20499;-80
2022/08/08 09:52:21;;;;;;;11.98;1.30;;;;;;;18.32;73.63;101742.94;5049566;28;20036;-80
2022/08/08 09:54:48;;;;;;;6.72;1.13;;;;;;;18.37;73.53;101739.75;5046544;28;20032;-80
2022/08/08 09:57:23;;;;;;;5.43;1.38;;;;;;;18.44;72.96;101743.47;5060695;28;20501;-81
2022/08/08 09:59:51;;;;;;;3.67;1.23;;;;;;;18.55;72.41;101736.97;5050903;28;20056;-81
2022/08/08 10:02:21;;;;;;;2.25;0.70;;;;;;;18.62;71.90;101740.63;5076378;28;20036;-81
2022/08/08 10:04:47;;;;;;;6.60;1.48;;;;;;;18.69;71.30;101744.34;5051353;28;20053;-80
2022/08/08 10:07:14;;;;;;;3.78;0.65;;;;;;;18.78;70.55;101747.84;5051398;28;20029;-84
2022/08/08 10:09:42;;;;;;;3.75;0.75;;;;;;;18.88;69.79;101744.16;5049049;28;20037;-84
2022/08/08 10:12:09;;;;;;;4.88;0.50;;;;;;;18.87;68.96;101748.69;5052087;28;20029;-80
2022/08/08 10:14:37;;;;;;;6.47;0.90;;;;;;;18.89;68.19;101744.00;5053082;28;20408;-80
2022/08/08 10:17:05;;;;;;;2.90;0.55;;;;;;;18.94;67.89;101748.84;5052836;28;20025;-81
2022/08/08 10:19:39;;;;;;;2.50;0.60;;;;;;;19.00;67.20;101745.50;5024919;28;20083;-80
2022/08/08 10:22:07;;;;;;;3.35;0.60;;;;;;;19.05;67.25;101735.13;5039733;28;20025;-80
2022/08/08 10:24:34;;;;;;;5.38;0.88;;;;;;;19.20;67.10;101739.81;5046487;28;20385;-81
2022/08/08 10:27:03;;;;;;;4.85;0.60;;;;;;;19.20;66.49;101740.66;5052024;28;20029;-80
2022/08/08 10:29:44;;;;;;;3.50;0.60;;;;;;;19.16;66.18;101739.31;5055468;28;20060;-81
2022/08/08 10:32:31;;;;;;;3.00;0.68;;;;;;;19.26;66.30;101736.44;5049701;28;20347;-81
2022/08/08 10:34:59;;;;;;;4.35;0.50;;;;;;;19.42;65.90;101735.59;5030494;28;20065;-80
2022/08/08 10:37:27;;;;;;;3.20;0.57;;;;;;;19.61;65.33;101740.72;5052632;28;20037;-80
2022/08/08 10:39:55;;;;;;;2.40;0.55;;;;;;;19.70;64.41;101732.47;5056633;28;20029;-80
2022/08/08 10:42:23;;;;;;;4.20;0.95;;;;;;;19.79;63.96;101735.97;5058223;28;20067;-81
2022/08/08 10:44:59;;;;;;;2.95;0.60;;;;;;;19.92;63.39;101737.25;5051980;28;20087;-81
2022/08/08 10:47:25;;;;;;;;;;;;;;;19.82;63.64;101735.63;5052488;28;20043;-81
2022/08/08 10:49:57;;;;;;;3.00;0.60;;;;;;;19.95;63.89;101740.44;5053924;28;19925;-81
2022/08/08 10:52:25;;;;;;;5.65;0.85;;;;;;;20.05;64.10;101732.16;5044910;28;20044;-80
2022/08/08 10:55:16;;;;;;;5.85;0.98;;;;;;;20.12;63.21;101732.31;5081590;28;20071;-80
2022/08/08 10:57:49;;;;;;;4.70;0.52;;;;;;;20.22;63.32;101728.56;5041634;28;20041;-81
2022/08/08 11:00:23;;;;;;;3.42;0.63;;;;;;;20.29;62.40;101724.97;5059016;28;20108;-80
2022/08/08 11:02:50;;;;;;;5.18;0.73;;;;;;;20.23;62.64;101722.19;5050533;28;20032;-81
2022/08/08 11:05:17;;;;;;;5.32;0.75;;;;;;;20.32;62.37;101716.56;5050544;28;20500;-81
2022/08/08 11:07:51;;;;;;;4.43;1.10;;;;;;;20.50;61.54;101720.81;5068120;28;20072;-81
2022/08/08 11:10:20;;;;;;;3.72;0.73;;;;;;;20.52;61.42;101718.78;5049910;28;20037;-80
2022/08/08 11:12:52;;;;;;;3.63;0.80;;;;;;;20.51;60.98;101714.44;5048362;28;20049;-85
2022/08/08 11:15:21;;;;;;;2.92;0.65;;;;;;;20.62;60.78;101717.72;5053784;28;20112;-85
2022/08/08 11:17:48;;;;;;;6.03;0.85;;;;;;;20.79;60.44;101713.88;5053798;28;20055;-80
2022/08/08 11:20:25;;;;;;;3.40;0.70;;;;;;;20.98;59.36;101717.09;5053587;28;20047;-80
2022/08/08 11:22:54;;;;;;;4.28;1.25;;;;;;;21.19;58.54;101723.59;5042368;28;20036;-84
2022/08/08 11:25:25;;;;;;;3.38;0.73;;;;;;;21.31;57.79;101718.59;5049136;28;20033;-84
2022/08/08 11:27:54;;;;;;;4.53;0.80;;;;;;;21.36;57.70;101710.81;5051531;28;20040;-80
2022/08/08 11:30:23;;;;;;;3.80;0.68;;;;;;;21.38;57.45;101707.94;5045182;28;20051;-80
2022/08/08 11:32:51;;;;;;;4.25;0.75;;;;;;;;;;5042046;28;20059;-79
2022/08/08 11:35:18;;;;;;;1.42;0.60;;;;;;;21.48;57.11;101721.97;5049100;28;20051;-80
2022/08/08 11:37:44;;;;;;;5.47;0.65;;;;;;;21.52;56.66;101715.16;5054494;28;20029;-80
2022/08/08 11:40:11;;;;;;;2.40;0.70;;;;;;;21.51;56.59;101718.91;5067542;28;20617;-80
2022/08/08 11:42:39;;;;;;;2.40;0.60;;;;;;;21.48;56.68;101713.88;5047954;28;20052;-80
2022/08/08 11:45:06;;;;;;;4.32;0.75;;;;;;;21.47;56.37;101722.13;5049785;28;20041;-80
2022/08/08 11:47:33;;;;;;;2.22;0.52;;;;;;;21.41;56.38;101721.84;5052320;28;20028;-81
2022/08/08 11:50:07;;;;;;;4.45;0.60;;;;;;;21.38;56.63;101730.28;5061021;28;20029;-81
2022/08/08 11:52:35;;;;;;;2.70;0.53;;;;;;;21.30;56.57;101719.63;5063459;28;20071;-81
2022/08/08 11:55:01;;;;;;;4.47;0.65;;;;;;;21.44;56.21;101705.34;5065379;28;20436;-81
2022/08/08 11:57:29;;;;;;;3.15;0.60;;;;;;;21.60;55.50;101694.56;5052466;28;20489;-81
2022/08/08 12:00:00;;;;;;;2.85;0.63;;;;;;;21.76;55.12;101698.91;5051455;28;20037;-80
2022/08/08 12:02:29;;;;;;;3.38;0.60;;;;;;;21.99;55.37;101704.19;5027937;28;20401;-81
2022/08/08 12:05:10;;;;;;;2.28;0.68;;;;;;;22.15;55.14;101699.59;5045451;28;20043;-80